Time;durP1;ratioP1;P1;durP2;ratioP2;P2;SDS_P1;SDS_P2;PMS_P1;PMS_P2;Temp;Humidity;BMP_temperature;BMP_pressure;BME280_temperature;BME280_humidity;BME280_pressure;Samples;Min_cycle;Max_cycle;Signal;HPM_P1;HPM_P2
2023/01/22 00:00:18;;;;;;;90.80;41.60;;;;;;;1.94;83.02;101045.22;130166;1258;114801;-66
2023/01/22 00:03:40;;;;;;;76.60;36.90;;;;;;;1.96;82.96;101049.80;130204;1259;129834;-65
2023/01/22 00:06:42;;;;;;;76.50;34.20;;;;;;;1.94;82.84;101053.52;130439;1258;114838;-65
2023/01/22 00:09:44;;;;;;;76.90;35.60;;;;;;;1.95;82.99;101049.27;130093;1259;114660;-65
2023/01/22 00:12:46;;;;;;;85.00;36.90;;;;;;;1.95;82.79;101047.17;129918;1258;114788;-66
2023/01/22 00:15:49;;;;;;;79.40;36.00;;;;;;;1.96;82.73;101046.10;130159;1277;114775;-65
2023/01/22 00:18:51;;;;;;;79.10;36.00;;;;;;;1.97;82.85;101046.81;129901;1274;114711;-67
2023/01/22 00:21:54;;;;;;;81.70;35.80;;;;;;;1.94;82.83;101054.56;130316;1275;114722;-64
2023/01/22 00:24:56;;;;;;;84.10;37.10;;;;;;;1.96;82.70;101058.44;129894;1259;128752;-64
2023/01/22 00:27:58;;;;;;;82.80;37.10;;;;;;;1.98;82.92;101060.73;129978;1270;114764;-64
2023/01/22 00:31:01;;;;;;;85.90;37.20;;;;;;;1.95;82.77;101057.92;129978;1273;114823;-63
2023/01/22 00:34:04;;;;;;;82.40;36.20;;;;;;;1.92;82.91;101055.09;129957;1277;114686;-64
2023/01/22 00:37:06;;;;;;;77.60;35.20;;;;;;;1.91;82.77;101065.66;130258;1254;115189;-65
2023/01/22 00:40:09;;;;;;;77.80;36.30;;;;;;;1.92;82.66;101071.83;130038;1268;114806;-65
2023/01/22 00:43:11;;;;;;;83.50;41.90;;;;;;;1.94;82.59;101078.88;129989;1259;114774;-63
2023/01/22 00:46:15;;;;;;;84.60;38.60;;;;;;;1.96;82.72;101075.71;130017;1258;115269;-64
2023/01/22 00:49:17;;;;;;;83.50;40.30;;;;;;;2.00;82.82;101067.41;129959;1253;114724;-65
2023/01/22 00:52:20;;;;;;;77.30;37.30;;;;;;;2.03;82.69;101078.51;129968;1277;114775;-64
2023/01/22 00:55:22;;;;;;;81.40;39.30;;;;;;;2.02;82.60;101086.27;129940;1262;114796;-63
2023/01/22 00:58:25;;;;;;;73.60;37.50;;;;;;;2.00;82.41;101093.67;129990;1277;114725;-64
2023/01/22 01:01:28;;;;;;;80.10;39.40;;;;;;;2.02;82.56;101092.42;129958;1277;128821;-63
2023/01/22 01:04:30;;;;;;;70.70;34.90;;;;;;;2.02;82.51;101090.14;129864;1254;114782;-65
2023/01/22 01:07:32;;;;;;;67.60;34.70;;;;;;;1.97;82.56;101095.78;129887;1259;114743;-64
2023/01/22 01:10:35;;;;;;;62.90;32.80;;;;;;;1.95;82.23;101104.59;130076;1257;114704;-64
2023/01/22 01:13:39;;;;;;;67.30;32.70;;;;;;;1.94;82.26;101104.23;129902;1277;114731;-64
2023/01/22 01:16:42;;;;;;;65.90;34.70;;;;;;;1.95;82.47;101109.54;129919;1259;115795;-63
2023/01/22 01:19:44;;;;;;;77.00;36.70;;;;;;;1.97;82.56;101106.17;129963;1259;115440;-65
2023/01/22 01:22:46;;;;;;;73.90;38.10;;;;;;;2.01;82.63;101111.63;129860;1277;114737;-62
2023/01/22 01:25:49;;;;;;;77.10;38.70;;;;;;;2.03;82.48;101113.22;130088;1258;116373;-64
2023/01/22 01:28:51;;;;;;;76.10;39.50;;;;;;;2.04;82.76;101114.64;130000;1259;115229;-64
2023/01/22 01:31:54;;;;;;;80.20;38.90;;;;;;;2.03;82.35;101116.91;130001;1271;114744;-64
2023/01/22 01:34:57;;;;;;;84.20;41.40;;;;;;;2.00;82.40;101123.79;130028;1275;114741;-64
2023/01/22 01:37:59;;;;;;;79.60;37.20;;;;;;;2.01;82.32;101125.73;130004;1271;114829;-65
2023/01/22 01:41:02;;;;;;;80.50;36.70;;;;;;;1.97;82.59;101122.73;129846;1254;114719;-64
2023/01/22 01:44:07;;;;;;;62.20;34.20;;;;;;;1.95;82.39;101122.56;129783;1259;115202;-65
2023/01/22 01:47:17;;;;;;;;;;;;;;;1.96;82.29;101123.80;129593;1265;114913;-65
2023/01/22 01:50:20;;;;;;;70.80;34.60;;;;;;;1.99;82.32;101125.02;129776;1278;114811;-64
2023/01/22 01:53:23;;;;;;;72.80;36.70;;;;;;;2.01;82.32;101124.33;129738;1258;114784;-64
2023/01/22 01:56:32;;;;;;;77.20;38.40;;;;;;;2.01;82.18;101130.31;130048;1277;114702;-64
2023/01/22 01:59:35;;;;;;;73.60;38.30;;;;;;;2.02;82.35;101128.19;130002;1275;115170;-65
2023/01/22 02:02:37;;;;;;;77.40;38.40;;;;;;;2.03;82.24;101131.55;130046;1259;114747;-63
2023/01/22 02:05:39;;;;;;;76.40;38.50;;;;;;;2.03;82.23;101131.20;130012;1273;114721;-64
2023/01/22 02:08:45;;;;;;;72.50;40.30;;;;;;;2.06;82.30;101137.89;130049;1277;114856;-64
2023/01/22 02:11:49;;;;;;;77.20;37.20;;;;;;;2.03;82.31;101136.13;129681;1277;116384;-63
2023/01/22 02:14:52;;;;;;;72.30;36.00;;;;;;;2.00;82.04;101137.52;129908;1258;129066;-63
2023/01/22 02:17:54;;;;;;;71.90;35.60;;;;;;;1.97;82.01;101137.72;129883;1259;115150;-64
2023/01/22 02:20:58;;;;;;;76.10;36.70;;;;;;;1.96;82.06;101145.11;129970;1267;114732;-64
2023/01/22 02:24:03;;;;;;;57.70;29.10;;;;;;;1.95;81.87;101145.83;130005;1254;114804;-64
2023/01/22 02:27:05;;;;;;;74.10;35.80;;;;;;;1.94;81.90;101148.81;130015;1277;114816;-64
2023/01/22 02:30:08;;;;;;;77.10;37.90;;;;;;;1.93;81.94;101150.58;129867;1277;114709;-63
2023/01/22 02:33:10;;;;;;;79.80;41.40;;;;;;;1.93;82.01;101150.40;130027;1277;114725;-65
2023/01/22 02:36:13;;;;;;;78.10;40.30;;;;;;;1.93;82.20;101151.63;130021;1257;115234;-64
2023/01/22 02:39:15;;;;;;;78.00;40.60;;;;;;;1.96;82.24;101153.38;129967;1259;114743;-63
2023/01/22 02:42:18;;;;;;;78.20;41.90;;;;;;;1.99;82.30;101157.27;129999;1254;114747;-63
2023/01/22 02:45:20;;;;;;;76.30;38.50;;;;;;;1.97;82.16;101159.04;129762;1259;114800;-64
2023/01/22 02:48:23;;;;;;;68.80;36.50;;;;;;;1.99;82.26;101162.03;130061;1253;114725;-63
2023/01/22 02:51:25;;;;;;;68.60;35.40;;;;;;;1.99;81.97;101160.44;129914;1259;128974;-67
2023/01/22 02:54:27;;;;;;;77.20;38.40;;;;;;;2.00;82.27;101164.31;129954;1259;114760;-62
2023/01/22 02:57:31;;;;;;;71.50;36.90;;;;;;;2.04;82.39;101162.20;130055;1253;114750;-63
2023/01/22 03:00:33;;;;;;;80.00;40.30;;;;;;;2.03;82.10;101163.61;130093;1277;114822;-64
2023/01/22 03:03:36;;;;;;;77.60;40.30;;;;;;;2.04;82.20;101165.36;130091;1253;114786;-64
2023/01/22 03:06:43;;;;;;;77.50;39.80;;;;;;;2.06;82.27;101166.42;130404;1257;114718;-63
2023/01/22 03:09:48;;;;;;;76.00;39.00;;;;;;;2.05;81.79;101165.20;130008;1277;128835;-65
2023/01/22 03:23:26;;;;;;;60.40;32.70;;;;;;;2.02;81.95;101179.98;129791;1262;114814;-64
2023/01/22 03:26:30;;;;;;;69.40;37.40;;;;;;;2.03;82.05;101183.86;129778;1260;128589;-63
2023/01/22 03:29:37;;;;;;;79.10;39.20;;;;;;;2.02;81.91;101182.29;129851;1278;115103;-63
2023/01/22 03:32:39;;;;;;;77.80;39.80;;;;;;;2.05;82.14;101181.77;129913;1259;114799;-63
2023/01/22 03:35:41;;;;;;;83.00;41.80;;;;;;;2.03;81.89;101182.98;129921;1278;115185;-63
2023/01/22 03:38:44;;;;;;;83.80;41.80;;;;;;;2.00;82.04;101185.27;129848;1278;115103;-64
2023/01/22 03:41:46;;;;;;;77.50;38.80;;;;;;;1.97;81.77;101180.53;129768;1259;114726;-63
2023/01/22 03:44:49;;;;;;;83.40;43.20;;;;;;;1.94;81.82;101179.63;129763;1259;114721;-63
2023/01/22 03:47:53;;;;;;;73.50;36.30;;;;;;;1.92;81.80;101178.05;129822;1278;116066;-63
2023/01/22 03:50:55;;;;;;;50.00;26.60;;;;;;;1.90;81.90;101187.91;129651;1262;114813;-64
2023/01/22 03:53:58;;;;;;;62.50;34.10;;;;;;;1.86;81.79;101192.66;129934;1260;114761;-64
2023/01/22 03:57:01;;;;;;;69.50;36.40;;;;;;;1.84;81.93;101192.84;129999;1269;115185;-64
2023/01/22 04:00:06;;;;;;;63.80;33.90;;;;;;;1.82;81.96;101193.38;129850;1275;114808;-64
2023/01/22 04:03:08;;;;;;;71.80;37.80;;;;;;;1.82;81.96;101195.84;129551;1263;127714;-65
2023/01/22 04:06:12;;;;;;;63.70;35.30;;;;;;;1.82;81.82;101192.67;129823;1278;114891;-64
2023/01/22 04:09:14;;;;;;;66.20;33.40;;;;;;;1.84;82.00;101193.20;129822;1278;114704;-63
2023/01/22 04:12:17;;;;;;;66.90;33.60;;;;;;;1.81;81.83;101189.67;129705;1278;114769;-66
2023/01/22 04:15:19;;;;;;;62.60;33.10;;;;;;;1.77;81.65;101191.78;129946;1278;115490;-64
2023/01/22 04:18:22;;;;;;;70.50;33.00;;;;;;;1.76;82.12;101200.93;129809;1278;114715;-64
2023/01/22 04:21:25;;;;;;;60.90;31.00;;;;;;;1.73;82.03;101208.86;129747;1259;128426;-64
2023/01/22 04:24:27;;;;;;;50.30;27.70;;;;;;;1.71;81.91;101216.08;129853;1259;115154;-64
2023/01/22 04:27:30;;;;;;;47.70;25.50;;;;;;;1.67;82.06;101207.79;129852;1259;115174;-64
2023/01/22 04:30:33;;;;;;;53.50;27.30;;;;;;;1.65;81.83;101209.38;129875;1259;114793;-65
2023/01/22 04:33:35;;;;;;;50.00;27.10;;;;;;;1.66;81.98;101209.55;129724;1275;114737;-63
2023/01/22 04:36:37;;;;;;;52.30;28.30;;;;;;;1.65;81.59;101215.89;129605;1278;114904;-63
2023/01/22 04:39:40;;;;;;;48.10;26.50;;;;;;;1.63;81.63;101211.14;129809;1278;114800;-65
2023/01/22 04:42:43;;;;;;;48.30;26.30;;;;;;;1.61;81.66;101215.35;129926;1260;114855;-65
2023/01/22 04:45:46;;;;;;;51.60;28.70;;;;;;;1.57;81.69;101210.07;129783;1259;115241;-65
2023/01/22 04:48:48;;;;;;;48.70;26.40;;;;;;;1.55;81.84;101206.71;129651;1262;114874;-65
2023/01/22 04:51:52;;;;;;;47.50;26.40;;;;;;;1.57;81.89;101208.30;129822;1260;114735;-65
2023/01/22 04:54:55;;;;;;;43.20;24.20;;;;;;;1.54;81.64;101207.23;129654;1270;116048;-65
2023/01/22 04:57:58;;;;;;;41.70;23.20;;;;;;;1.49;81.66;101214.98;129777;1268;114732;-66
2023/01/22 05:01:01;;;;;;;40.20;22.50;;;;;;;1.47;81.65;101218.50;130026;1268;115302;-64
2023/01/22 05:04:03;;;;;;;42.50;23.50;;;;;;;1.49;81.83;101218.66;129812;1260;114756;-63
2023/01/22 05:07:05;;;;;;;39.40;23.30;;;;;;;1.51;81.29;101221.84;129876;1270;114811;-63
2023/01/22 05:10:08;;;;;;;45.50;26.20;;;;;;;1.52;81.61;101226.60;129786;1260;114732;-64
2023/01/22 05:13:10;;;;;;;36.70;20.50;;;;;;;1.54;81.68;101235.41;129797;1278;114780;-63
2023/01/22 05:16:13;;;;;;;29.90;18.80;;;;;;;1.53;81.06;101234.88;129731;1278;115329;-65
2023/01/22 05:19:15;;;;;;;27.10;17.00;;;;;;;1.55;81.24;101236.46;129962;1260;114740;-66
2023/01/22 05:22:17;;;;;;;30.60;16.50;;;;;;;1.54;80.81;101237.86;129851;1278;115214;-67
2023/01/22 05:25:19;;;;;;;27.70;17.20;;;;;;;1.53;80.57;101246.85;130221;1259;114838;-67
2023/01/22 05:28:22;;;;;;;29.10;17.00;;;;;;;1.55;80.98;101253.02;129836;1258;115192;-67
2023/01/22 05:31:24;;;;;;;27.10;17.90;;;;;;;1.58;80.93;101258.47;129912;1264;114723;-67
2023/01/22 05:34:26;;;;;;;27.10;16.70;;;;;;;1.60;80.84;101268.69;129896;1279;114751;-66
2023/01/22 05:37:30;;;;;;;27.30;16.90;;;;;;;1.59;80.64;101275.55;129991;1261;114754;-64
2023/01/22 05:40:32;;;;;;;20.70;12.80;;;;;;;1.58;80.24;101284.02;130033;1263;114782;-64
2023/01/22 05:43:38;;;;;;;23.40;13.70;;;;;;;1.56;79.93;101280.84;130065;1260;114731;-64
2023/01/22 05:46:40;;;;;;;24.80;15.40;;;;;;;1.60;80.19;101284.71;129698;1263;114804;-63
2023/01/22 05:49:43;;;;;;;28.00;16.30;;;;;;;1.63;80.45;101281.55;129975;1270;115320;-64
2023/01/22 05:52:53;;;;;;;28.60;16.90;;;;;;;1.66;80.14;101277.34;130017;1258;114815;-64
2023/01/22 05:56:01;;;;;;;28.00;15.90;;;;;;;1.72;80.40;101270.84;129891;1266;128773;-64
2023/01/22 05:59:03;;;;;;;26.60;16.50;;;;;;;1.77;80.60;101270.86;129811;1278;115292;-64
2023/01/22 06:02:05;;;;;;;29.80;18.70;;;;;;;1.81;80.18;101264.70;129811;1267;116127;-64
2023/01/22 06:05:08;;;;;;;36.00;20.80;;;;;;;1.84;80.19;101266.11;129966;1260;114816;-63
2023/01/22 06:08:10;;;;;;;39.10;22.80;;;;;;;1.82;80.00;101266.98;129652;1261;114729;-64
2023/01/22 06:11:14;;;;;;;41.30;22.80;;;;;;;1.82;80.35;101270.88;130074;1267;115145;-64
2023/01/22 06:14:16;;;;;;;47.00;26.80;;;;;;;1.84;80.30;101278.09;130041;1278;114759;-64
2023/01/22 06:17:19;;;;;;;42.40;22.90;;;;;;;1.82;80.16;101278.98;129639;1270;114850;-64
2023/01/22 06:20:21;;;;;;;38.30;21.10;;;;;;;1.81;80.10;101283.38;130046;1260;114715;-63
2023/01/22 06:23:25;;;;;;;43.50;23.30;;;;;;;1.83;80.32;101284.08;129811;1264;114834;-64
2023/01/22 06:26:28;;;;;;;124.40;49.80;;;;;;;1.88;80.16;101285.67;129830;1269;114913;-64
2023/01/22 06:29:30;;;;;;;108.90;46.70;;;;;;;1.91;80.19;101282.86;129749;1260;114745;-66
2023/01/22 06:32:34;;;;;;;141.60;58.80;;;;;;;1.94;80.45;101290.09;129903;1258;128862;-65
2023/01/22 06:35:37;;;;;;;108.40;47.60;;;;;;;1.98;80.33;101298.04;129991;1259;114787;-63
2023/01/22 06:38:39;;;;;;;60.20;31.40;;;;;;;2.00;80.37;101299.27;129937;1258;115344;-64
2023/01/22 06:41:41;;;;;;;50.20;29.80;;;;;;;2.00;80.26;101301.02;129966;1278;114767;-63
2023/01/22 06:44:44;;;;;;;51.80;28.10;;;;;;;2.01;80.38;101306.14;129812;1268;114793;-63
2023/01/22 06:47:46;;;;;;;52.40;31.30;;;;;;;2.01;80.23;101305.25;129916;1278;114763;-64
2023/01/22 06:50:48;;;;;;;49.40;26.70;;;;;;;1.99;80.24;101304.55;129864;1270;114725;-64
2023/01/22 06:53:50;;;;;;;42.80;25.40;;;;;;;1.96;80.04;101305.96;130015;1260;114771;-64
2023/01/22 06:56:53;;;;;;;37.90;23.90;;;;;;;1.94;80.06;101308.59;130082;1260;114738;-64
2023/01/22 06:59:55;;;;;;;44.40;26.70;;;;;;;1.94;80.11;101313.89;130090;1260;114890;-64
2023/01/22 07:02:57;;;;;;;68.30;37.10;;;;;;;1.95;80.25;101315.11;129989;1259;114731;-64
2023/01/22 07:06:02;;;;;;;69.00;36.80;;;;;;;1.95;80.29;101317.41;129854;1260;114892;-64
2023/01/22 07:09:05;;;;;;;54.30;31.90;;;;;;;1.98;80.13;101326.22;129982;1258;114844;-64
2023/01/22 07:12:07;;;;;;;51.20;30.20;;;;;;;1.95;80.10;101330.61;129990;1277;114847;-65
2023/01/22 07:15:10;;;;;;;56.40;32.60;;;;;;;1.92;79.98;101331.13;130039;1277;114805;-63
2023/01/22 07:18:13;;;;;;;56.60;32.90;;;;;;;1.90;80.09;101332.19;129985;1276;115169;-64
2023/01/22 07:21:15;;;;;;;59.80;35.00;;;;;;;1.87;80.12;101340.64;130104;1257;115330;-64
2023/01/22 07:24:17;;;;;;;53.10;30.50;;;;;;;1.84;80.41;101339.91;129967;1254;114813;-63
2023/01/22 07:27:20;;;;;;;45.80;27.20;;;;;;;1.85;80.31;101349.08;129853;1257;115103;-65
2023/01/22 07:30:23;;;;;;;52.30;29.20;;;;;;;1.87;80.32;101347.86;130023;1278;114828;-65
2023/01/22 07:33:25;;;;;;;64.30;35.40;;;;;;;1.91;80.60;101349.27;130007;1278;114828;-63
2023/01/22 07:36:27;;;;;;;72.20;39.00;;;;;;;1.96;80.73;101350.88;129864;1278;114747;-64
2023/01/22 07:39:30;;;;;;;73.00;39.50;;;;;;;2.00;80.46;101360.74;130380;1259;115271;-66
2023/01/22 07:42:32;;;;;;;76.20;40.40;;;;;;;2.01;80.34;101360.75;129442;1263;183812;-64
2023/01/22 07:45:34;;;;;;;74.30;41.00;;;;;;;2.03;80.55;101366.05;130031;1278;115328;-64
2023/01/22 07:48:37;;;;;;;74.80;38.50;;;;;;;2.05;80.34;101371.70;129901;1278;114729;-64
2023/01/22 07:51:39;;;;;;;94.00;44.20;;;;;;;2.03;80.30;101376.10;129704;1278;114791;-65
2023/01/22 07:54:42;;;;;;;67.90;33.70;;;;;;;2.00;80.47;101380.66;129783;1278;114890;-64
2023/01/22 07:57:47;;;;;;;66.00;31.90;;;;;;;1.97;80.22;101385.77;129488;1278;115185;-63
2023/01/22 08:00:50;;;;;;;68.30;37.80;;;;;;;1.94;80.19;101387.16;129840;1260;115323;-65
2023/01/22 08:03:52;;;;;;;75.20;35.00;;;;;;;1.98;80.90;101387.17;130047;1261;114772;-64
2023/01/22 08:06:55;;;;;;;73.70;36.10;;;;;;;2.07;80.71;101390.02;130045;1260;114797;-64
2023/01/22 08:09:57;;;;;;;50.50;27.40;;;;;;;2.12;80.60;101387.40;129642;1257;114751;-62
2023/01/22 08:12:59;;;;;;;55.40;29.80;;;;;;;2.14;80.25;101384.41;129754;1260;114795;-63
2023/01/22 08:16:02;;;;;;;63.90;32.40;;;;;;;2.15;80.25;101379.13;129923;1278;116164;-64
2023/01/22 08:19:04;;;;;;;59.40;30.90;;;;;;;2.16;80.24;101375.60;130020;1276;115432;-65
2023/01/22 08:22:07;;;;;;;64.10;33.30;;;;;;;2.18;80.25;101374.71;129933;1260;115341;-63
2023/01/22 08:25:09;;;;;;;79.60;36.10;;;;;;;2.20;80.24;101374.55;129983;1267;114772;-65
2023/01/22 08:28:11;;;;;;;89.00;41.00;;;;;;;2.22;79.98;101384.96;130017;1277;114753;-65
2023/01/22 08:31:14;;;;;;;70.20;34.80;;;;;;;2.23;80.02;101375.45;130023;1277;114809;-64
2023/01/22 08:34:16;;;;;;;72.50;34.80;;;;;;;2.21;79.95;101383.19;129915;1277;128892;-64
2023/01/22 08:37:22;;;;;;;72.50;33.30;;;;;;;2.20;79.83;101392.71;129859;1257;114737;-64
2023/01/22 08:40:25;;;;;;;62.90;31.10;;;;;;;2.25;80.02;101394.66;129929;1259;115125;-65
2023/01/22 08:43:28;;;;;;;65.70;34.10;;;;;;;2.31;80.05;101400.32;129881;1276;114732;-65
2023/01/22 08:46:31;;;;;;;63.90;32.60;;;;;;;2.32;79.77;101399.79;130234;1263;115379;-64
2023/01/22 08:49:33;;;;;;;60.70;34.50;;;;;;;2.32;79.76;101397.86;130125;1278;115161;-65
2023/01/22 08:52:35;;;;;;;71.00;46.60;;;;;;;2.35;79.85;101400.67;130228;1277;114759;-64
2023/01/22 08:55:37;;;;;;;56.00;28.30;;;;;;;2.38;79.80;101408.80;129966;1277;115134;-66
2023/01/22 08:58:39;;;;;;;55.00;29.40;;;;;;;2.40;79.64;101417.07;130093;1257;114810;-65
2023/01/22 09:01:42;;;;;;;53.30;28.10;;;;;;;2.41;79.58;101425.36;130299;1277;114777;-64
2023/01/22 09:04:44;;;;;;;54.80;29.70;;;;;;;2.41;79.51;101426.60;129820;1270;114822;-67
2023/01/22 09:07:46;;;;;;;57.70;30.10;;;;;;;2.39;79.49;101421.84;130114;1254;114923;-64
2023/01/22 09:10:48;;;;;;;51.10;27.20;;;;;;;2.39;79.69;101414.27;129919;1274;114743;-63
2023/01/22 09:13:54;;;;;;;46.90;25.40;;;;;;;2.42;79.76;101416.38;129975;1262;114894;-64
2023/01/22 09:16:57;;;;;;;49.80;27.00;;;;;;;2.50;79.79;101419.56;129560;1256;115212;-63
2023/01/22 09:19:59;;;;;;;53.90;27.30;;;;;;;2.56;79.69;101423.81;129892;1254;114751;-62
2023/01/22 09:23:02;;;;;;;48.70;26.60;;;;;;;2.62;79.65;101431.05;130055;1254;114965;-63
2023/01/22 09:26:05;;;;;;;54.20;29.20;;;;;;;2.67;79.54;101438.83;129915;1273;114824;-63
2023/01/22 09:29:07;;;;;;;49.80;28.00;;;;;;;2.71;79.62;101442.35;130061;1254;115639;-63
2023/01/22 09:32:10;;;;;;;53.30;29.60;;;;;;;2.74;79.52;101435.30;129855;1257;129244;-62
2023/01/22 09:35:12;;;;;;;55.10;30.70;;;;;;;2.73;79.36;101432.13;130104;1254;115357;-64
2023/01/22 09:38:15;;;;;;;52.80;29.70;;;;;;;2.70;79.32;101432.30;129743;1278;114888;-62
2023/01/22 09:41:28;;;;;;;50.20;28.80;;;;;;;2.70;79.49;101436.02;129979;1259;114752;-62
2023/01/22 09:44:36;;;;;;;50.20;27.50;;;;;;;2.76;79.81;101434.77;129530;1277;114811;-63
2023/01/22 09:47:46;;;;;;;49.40;28.10;;;;;;;2.76;79.64;101439.54;129736;1276;114827;-64
2023/01/22 09:50:49;;;;;;;55.40;30.30;;;;;;;2.75;79.69;101436.89;129973;1268;128827;-64
2023/01/22 09:53:55;;;;;;;55.40;34.00;;;;;;;2.73;79.47;101438.65;129927;1260;114854;-63
2023/01/22 09:57:02;;;;;;;46.60;23.70;;;;;;;2.69;79.55;101440.05;129834;1257;116424;-62
2023/01/22 10:00:33;;;;;;;49.10;27.10;;;;;;;2.72;79.81;101439.89;129931;1277;114837;-63
2023/01/22 10:03:55;;;;;;;50.00;26.80;;;;;;;2.84;80.01;101438.66;130048;1256;114735;-62
2023/01/22 10:07:00;;;;;;;49.40;27.80;;;;;;;2.88;79.91;101436.91;129675;1270;128561;-64
2023/01/22 10:10:19;;;;;;;61.10;34.10;;;;;;;2.92;79.99;101431.60;129915;1257;114825;-66
2023/01/22 10:13:22;;;;;;;69.30;41.10;;;;;;;2.98;79.95;101431.08;129722;1277;114934;-65
2023/01/22 10:16:25;;;;;;;89.40;50.70;;;;;;;2.99;79.64;101428.60;129712;1263;115299;-62
2023/01/22 10:19:48;;;;;;;94.30;53.60;;;;;;;2.95;79.74;101423.14;130000;1259;114682;-64
2023/01/22 10:23:01;;;;;;;80.70;41.80;;;;;;;2.90;79.54;101423.50;129973;1270;128844;-64
2023/01/22 10:26:15;;;;;;;58.60;33.80;;;;;;;2.83;79.65;101427.91;129590;1276;115217;-64
2023/01/22 10:29:26;;;;;;;59.80;33.10;;;;;;;2.77;79.68;101423.31;129941;1254;114808;-63
2023/01/22 10:32:30;;;;;;;59.60;32.50;;;;;;;2.78;79.82;101430.02;129652;1254;114871;-63
2023/01/22 10:35:48;;;;;;;52.30;29.60;;;;;;;2.79;80.04;101425.77;129539;1264;116514;-63
2023/01/22 10:39:11;;;;;;;73.60;33.30;;;;;;;2.79;80.08;101419.08;129624;1270;127236;-63
2023/01/22 10:42:18;;;;;;;58.90;31.20;;;;;;;2.80;79.97;101422.25;129594;1264;115221;-64
2023/01/22 10:45:20;;;;;;;59.80;30.10;;;;;;;2.78;80.02;101424.36;129990;1257;114696;-64
2023/01/22 10:48:23;;;;;;;53.60;30.00;;;;;;;2.78;80.26;101424.02;130040;1257;114715;-63
2023/01/22 10:51:40;;;;;;;48.90;27.40;;;;;;;2.79;80.25;101427.02;130050;1270;114734;-64
2023/01/22 10:54:44;;;;;;;51.50;28.40;;;;;;;2.81;80.24;101429.48;129960;1270;129030;-63
2023/01/22 10:58:06;;;;;;;47.30;26.20;;;;;;;2.81;80.36;101435.84;129966;1261;114719;-65
2023/01/22 11:01:35;;;;;;;53.30;28.50;;;;;;;2.88;80.23;101434.79;129652;1260;114705;-63
2023/01/22 11:04:38;;;;;;;58.20;31.50;;;;;;;2.95;80.25;101432.50;129905;1254;114731;-66
2023/01/22 11:07:44;;;;;;;61.80;36.10;;;;;;;2.95;80.04;101433.73;129560;1275;114882;-64
2023/01/22 11:10:53;;;;;;;60.90;37.60;;;;;;;2.90;79.84;101433.89;129598;1260;128012;-60
2023/01/22 11:14:02;;;;;;;56.30;32.40;;;;;;;2.90;79.99;101436.37;129941;1259;114789;-62
2023/01/22 11:17:18;;;;;;;50.40;27.90;;;;;;;2.88;79.91;101440.96;129442;1267;114806;-62
2023/01/22 11:20:32;;;;;;;46.60;27.60;;;;;;;2.80;79.80;101442.73;129708;1278;114911;-62
2023/01/22 11:23:40;;;;;;;47.70;27.50;;;;;;;2.78;80.02;101443.24;129894;1274;114766;-62
2023/01/22 11:26:52;;;;;;;43.30;26.00;;;;;;;2.76;79.99;101454.52;129522;1260;128713;-62
2023/01/22 11:30:22;;;;;;;43.30;25.20;;;;;;;2.71;79.95;101450.66;129494;1264;115260;-62
2023/01/22 11:33:41;;;;;;;40.50;21.60;;;;;;;2.66;80.05;101452.22;129439;1261;114879;-61
2023/01/22 11:37:17;;;;;;;38.60;21.00;;;;;;;2.69;80.07;101441.64;129465;1256;114741;-62
2023/01/22 11:40:28;;;;;;;36.60;21.00;;;;;;;2.79;80.33;101437.60;129541;1261;114920;-62
2023/01/22 11:43:30;;;;;;;39.60;23.00;;;;;;;2.88;80.19;101435.14;129376;1276;128827;-62
2023/01/22 11:46:56;;;;;;;33.40;20.60;;;;;;;2.99;80.31;101433.91;129344;1281;116565;-61
2023/01/22 11:50:17;;;;;;;49.70;27.90;;;;;;;3.06;80.22;101429.84;129440;1264;115004;-62
2023/01/22 11:53:25;;;;;;;47.90;26.30;;;;;;;3.16;80.42;101426.14;129309;1277;115061;-62
2023/01/22 11:56:44;;;;;;;56.90;42.90;;;;;;;3.25;80.20;101421.89;129196;1267;114910;-63
2023/01/22 12:00:09;;;;;;;44.80;28.30;;;;;;;3.32;80.03;101428.06;129594;1262;128064;-62
2023/01/22 12:03:24;;;;;;;50.50;29.20;;;;;;;3.32;79.57;101432.47;129700;1257;115253;-63
2023/01/22 12:06:45;;;;;;;50.80;28.60;;;;;;;3.35;79.66;101428.76;129895;1260;114739;-64
2023/01/22 12:10:00;;;;;;;46.50;27.10;;;;;;;3.35;79.35;101424.70;131852;1254;114751;-62
2023/01/22 12:13:25;;;;;;;52.00;26.30;;;;;;;3.40;79.41;101423.80;129742;1270;114812;-61
2023/01/22 12:16:40;;;;;;;47.00;28.20;;;;;;;3.45;79.41;101417.98;129403;1279;128742;-62
2023/01/22 12:20:08;;;;;;;53.70;31.60;;;;;;;3.47;79.17;101415.86;129638;1264;116507;-62
2023/01/22 12:23:23;;;;;;;55.80;34.60;;;;;;;3.47;78.80;101414.80;130140;1256;114711;-63
2023/01/22 12:26:30;;;;;;;55.20;30.00;;;;;;;3.48;79.01;101410.90;129700;1270;115282;-64
2023/01/22 12:29:43;;;;;;;73.80;38.90;;;;;;;3.45;78.92;101412.86;129592;1276;114930;-62
2023/01/22 12:32:51;;;;;;;67.40;37.40;;;;;;;3.41;78.93;101414.80;129592;1264;128037;-65
2023/01/22 12:36:01;;;;;;;62.10;34.10;;;;;;;3.33;78.84;101411.29;129470;1277;115243;-67
2023/01/22 12:39:24;;;;;;;55.60;33.30;;;;;;;3.26;78.92;101412.01;129784;1260;115173;-63
2023/01/22 12:43:03;;;;;;;58.40;36.00;;;;;;;3.20;78.84;101419.27;129544;1265;114979;-63
2023/01/22 12:46:39;;;;;;;59.40;34.20;;;;;;;3.08;78.65;101419.44;129620;1256;115148;-61
2023/01/22 12:49:50;;;;;;;51.10;27.10;;;;;;;3.04;78.88;101427.38;129774;1277;130125;-61
2023/01/22 12:53:20;;;;;;;48.80;28.10;;;;;;;3.07;78.96;101428.09;129863;1277;115189;-63
2023/01/22 12:56:31;;;;;;;49.80;28.20;;;;;;;3.04;78.71;101432.67;129896;1276;114856;-62
2023/01/22 12:59:41;;;;;;;49.70;30.50;;;;;;;3.02;78.83;101432.84;129759;1259;114708;-63
2023/01/22 13:02:44;;;;;;;39.30;24.50;;;;;;;3.05;78.98;101436.02;129647;1257;114820;-65
2023/01/22 13:05:46;;;;;;;42.10;25.60;;;;;;;3.01;78.66;101434.09;129919;1277;114727;-63
2023/01/22 13:08:49;;;;;;;40.60;25.40;;;;;;;2.94;78.46;101441.67;129922;1277;115325;-62
2023/01/22 13:11:52;;;;;;;47.80;27.80;;;;;;;2.88;78.70;101442.38;129930;1277;114756;-65
2023/01/22 13:14:54;;;;;;;37.90;21.90;;;;;;;2.80;78.62;101445.90;130052;1272;114750;-66
2023/01/22 13:18:12;;;;;;;37.30;21.90;;;;;;;2.76;78.88;101447.83;130192;1257;114836;-65
2023/01/22 13:21:16;;;;;;;36.60;21.00;;;;;;;2.73;78.78;101454.70;129609;1273;114889;-68
2023/01/22 13:24:20;;;;;;;34.50;21.70;;;;;;;2.70;78.82;101456.48;129734;1277;128191;-67
2023/01/22 13:27:29;;;;;;;46.00;24.80;;;;;;;2.68;79.27;101455.23;129809;1262;115160;-65
2023/01/22 13:30:31;;;;;;;39.60;22.60;;;;;;;2.68;79.27;101457.88;129914;1256;114722;-66
2023/01/22 13:33:34;;;;;;;39.00;23.00;;;;;;;2.64;79.01;101456.64;130575;1254;114790;-66
2023/01/22 13:36:38;;;;;;;39.60;23.20;;;;;;;2.59;79.23;101451.16;130492;1258;115478;-69
2023/01/22 13:39:40;;;;;;;47.90;28.10;;;;;;;2.53;79.19;101452.39;130399;1256;115402;-67
2023/01/22 13:42:44;;;;;;;40.20;26.60;;;;;;;2.52;79.44;101450.61;130643;1254;114722;-67
2023/01/22 13:45:47;;;;;;;41.70;24.20;;;;;;;2.49;79.43;101448.84;129892;1277;115122;-65
2023/01/22 13:49:05;;;;;;;41.10;23.60;;;;;;;2.49;79.75;101451.13;129968;1254;114747;-67
2023/01/22 13:52:17;;;;;;;40.30;22.80;;;;;;;2.48;79.57;101450.77;130342;1253;114700;-65
2023/01/22 13:55:21;;;;;;;48.80;24.50;;;;;;;2.44;79.55;101453.23;129922;1258;127695;-64
2023/01/22 13:58:40;;;;;;;52.00;26.50;;;;;;;2.37;79.69;101457.98;130338;1257;115279;-63
2023/01/22 14:01:42;;;;;;;44.80;26.40;;;;;;;2.37;79.93;101463.09;129992;1262;114775;-65
2023/01/22 14:04:45;;;;;;;50.50;28.60;;;;;;;2.35;79.91;101463.61;130365;1257;114837;-63